sensor_id;sensor_type;location;lat;lon;timestamp;pressure;altitude;pressure_sealevel;temperature;humidity
4705;BME280;2366;51.332;6.610;2022-07-23T00:02:20;101649.44;;;19.67;100.00
4705;BME280;2366;51.332;6.610;2022-07-23T00:04:45;101662.72;;;19.68;100.00
4705;BME280;2366;51.332;6.610;2022-07-23T00:07:11;101656.16;;;19.73;100.00
4705;BME280;2366;51.332;6.610;2022-07-23T00:09:36;101643.88;;;19.80;100.00
4705;BME280;2366;51.332;6.610;2022-07-23T00:12:02;101646.94;;;19.75;100.00
4705;BME280;2366;51.332;6.610;2022-07-23T00:14:27;101644.75;;;19.69;100.00
4705;BME280;2366;51.332;6.610;2022-07-23T00:16:52;101645.66;;;19.69;100.00
4705;BME280;2366;51.332;6.610;2022-07-23T00:19:18;101645.38;;;19.73;100.00
4705;BME280;2366;51.332;6.610;2022-07-23T00:21:43;101640.00;;;19.73;100.00
4705;BME280;2366;51.332;6.610;2022-07-23T00:24:08;101633.38;;;19.77;100.00
4705;BME280;2366;51.332;6.610;2022-07-23T00:26:34;101632.31;;;19.68;100.00
4705;BME280;2366;51.332;6.610;2022-07-23T00:28:59;101634.75;;;19.71;100.00
4705;BME280;2366;51.332;6.610;2022-07-23T00:31:24;101640.72;;;19.75;100.00
4705;BME280;2366;51.332;6.610;2022-07-23T00:33:50;101642.44;;;19.76;100.00
4705;BME280;2366;51.332;6.610;2022-07-23T00:36:15;101638.25;;;19.83;100.00
4705;BME280;2366;51.332;6.610;2022-07-23T00:38:41;101637.25;;;19.84;100.00
4705;BME280;2366;51.332;6.610;2022-07-23T00:41:06;101639.09;;;19.83;100.00
4705;BME280;2366;51.332;6.610;2022-07-23T00:43:32;101646.03;;;19.86;100.00
4705;BME280;2366;51.332;6.610;2022-07-23T00:45:57;101654.81;;;19.88;100.00
4705;BME280;2366;51.332;6.610;2022-07-23T00:48:22;101642.06;;;19.80;100.00
4705;BME280;2366;51.332;6.610;2022-07-23T00:50:48;101646.56;;;19.80;100.00
4705;BME280;2366;51.332;6.610;2022-07-23T00:53:13;101652.34;;;19.75;100.00
4705;BME280;2366;51.332;6.610;2022-07-23T00:55:39;101650.69;;;19.63;100.00
4705;BME280;2366;51.332;6.610;2022-07-23T00:58:05;101646.75;;;19.67;100.00
4705;BME280;2366;51.332;6.610;2022-07-23T01:00:31;101648.06;;;19.73;100.00
4705;BME280;2366;51.332;6.610;2022-07-23T01:02:56;101645.41;;;19.61;100.00
4705;BME280;2366;51.332;6.610;2022-07-23T01:05:22;101650.13;;;19.48;100.00
4705;BME280;2366;51.332;6.610;2022-07-23T01:07:51;101653.59;;;19.39;100.00
4705;BME280;2366;51.332;6.610;2022-07-23T01:10:17;101651.66;;;19.29;100.00
4705;BME280;2366;51.332;6.610;2022-07-23T01:13:05;101653.78;;;19.26;100.00
4705;BME280;2366;51.332;6.610;2022-07-23T01:15:32;101653.91;;;19.24;100.00
4705;BME280;2366;51.332;6.610;2022-07-23T01:17:58;101648.88;;;19.31;100.00
4705;BME280;2366;51.332;6.610;2022-07-23T01:20:23;101652.88;;;19.37;100.00
4705;BME280;2366;51.332;6.610;2022-07-23T01:22:50;101656.03;;;19.42;100.00
4705;BME280;2366;51.332;6.610;2022-07-23T01:25:15;101650.53;;;19.43;100.00
4705;BME280;2366;51.332;6.610;2022-07-23T01:27:40;101647.84;;;19.43;100.00
4705;BME280;2366;51.332;6.610;2022-07-23T01:30:07;101641.78;;;19.30;100.00
4705;BME280;2366;51.332;6.610;2022-07-23T01:32:32;101646.72;;;19.14;100.00
4705;BME280;2366;51.332;6.610;2022-07-23T01:34:58;101648.19;;;19.18;100.00
4705;BME280;2366;51.332;6.610;2022-07-23T01:37:23;101645.88;;;19.13;100.00
4705;BME280;2366;51.332;6.610;2022-07-23T01:39:48;101649.31;;;19.04;100.00
4705;BME280;2366;51.332;6.610;2022-07-23T01:42:14;101634.19;;;19.03;100.00
4705;BME280;2366;51.332;6.610;2022-07-23T01:44:39;101640.16;;;19.06;100.00
4705;BME280;2366;51.332;6.610;2022-07-23T01:47:05;101642.97;;;19.05;100.00
4705;BME280;2366;51.332;6.610;2022-07-23T01:49:30;101637.00;;;19.01;100.00
4705;BME280;2366;51.332;6.610;2022-07-23T01:51:55;101634.44;;;19.00;100.00
4705;BME280;2366;51.332;6.610;2022-07-23T01:54:29;101631.75;;;19.00;100.00
4705;BME280;2366;51.332;6.610;2022-07-23T01:56:54;101644.09;;;19.02;100.00
4705;BME280;2366;51.332;6.610;2022-07-23T01:59:21;101634.94;;;18.94;100.00
4705;BME280;2366;51.332;6.610;2022-07-23T02:01:46;101628.06;;;19.01;100.00
4705;BME280;2366;51.332;6.610;2022-07-23T02:04:12;101629.06;;;19.00;100.00
4705;BME280;2366;51.332;6.610;2022-07-23T02:06:37;101627.75;;;18.94;100.00
4705;BME280;2366;51.332;6.610;2022-07-23T02:09:02;101629.63;;;18.82;100.00
4705;BME280;2366;51.332;6.610;2022-07-23T02:11:28;101629.34;;;18.74;100.00
4705;BME280;2366;51.332;6.610;2022-07-23T02:13:53;101627.16;;;18.68;100.00
4705;BME280;2366;51.332;6.610;2022-07-23T02:16:19;101631.31;;;18.72;100.00
4705;BME280;2366;51.332;6.610;2022-07-23T02:18:44;101625.94;;;18.83;100.00
4705;BME280;2366;51.332;6.610;2022-07-23T02:21:11;101626.88;;;18.94;100.00
4705;BME280;2366;51.332;6.610;2022-07-23T02:23:36;101636.41;;;18.98;100.00
4705;BME280;2366;51.332;6.610;2022-07-23T02:26:02;101634.06;;;18.93;100.00
4705;BME280;2366;51.332;6.610;2022-07-23T02:28:27;101628.97;;;18.90;100.00
4705;BME280;2366;51.332;6.610;2022-07-23T02:30:52;101632.31;;;18.82;100.00
4705;BME280;2366;51.332;6.610;2022-07-23T02:33:18;101633.50;;;18.67;100.00
4705;BME280;2366;51.332;6.610;2022-07-23T02:35:43;101627.91;;;18.59;100.00
4705;BME280;2366;51.332;6.610;2022-07-23T02:38:08;101625.81;;;18.62;100.00
4705;BME280;2366;51.332;6.610;2022-07-23T02:40:34;101625.59;;;18.54;100.00
4705;BME280;2366;51.332;6.610;2022-07-23T02:42:59;101627.66;;;18.62;100.00
4705;BME280;2366;51.332;6.610;2022-07-23T02:45:24;101626.91;;;18.60;100.00
4705;BME280;2366;51.332;6.610;2022-07-23T02:47:50;101631.53;;;18.69;100.00
4705;BME280;2366;51.332;6.610;2022-07-23T02:50:15;101632.06;;;18.63;100.00
4705;BME280;2366;51.332;6.610;2022-07-23T02:52:40;101634.84;;;18.61;100.00
4705;BME280;2366;51.332;6.610;2022-07-23T02:55:06;101625.22;;;18.59;100.00
4705;BME280;2366;51.332;6.610;2022-07-23T02:57:31;101636.94;;;18.46;100.00
4705;BME280;2366;51.332;6.610;2022-07-23T02:59:57;101627.78;;;18.38;100.00
4705;BME280;2366;51.332;6.610;2022-07-23T03:02:22;101628.41;;;18.30;100.00
4705;BME280;2366;51.332;6.610;2022-07-23T03:04:49;101628.03;;;18.23;100.00
4705;BME280;2366;51.332;6.610;2022-07-23T03:07:16;101638.28;;;18.18;100.00
4705;BME280;2366;51.332;6.610;2022-07-23T03:09:41;101631.09;;;18.08;100.00
4705;BME280;2366;51.332;6.610;2022-07-23T03:12:07;101629.41;;;18.06;100.00
4705;BME280;2366;51.332;6.610;2022-07-23T03:14:32;101635.81;;;18.04;100.00
4705;BME280;2366;51.332;6.610;2022-07-23T03:16:58;101638.13;;;17.97;100.00
4705;BME280;2366;51.332;6.610;2022-07-23T03:19:25;101629.25;;;17.97;100.00
4705;BME280;2366;51.332;6.610;2022-07-23T03:21:50;101636.19;;;17.99;100.00
4705;BME280;2366;51.332;6.610;2022-07-23T03:24:15;101635.72;;;17.94;100.00
4705;BME280;2366;51.332;6.610;2022-07-23T03:26:43;101639.34;;;17.93;100.00
4705;BME280;2366;51.332;6.610;2022-07-23T03:29:09;101644.13;;;17.90;100.00
4705;BME280;2366;51.332;6.610;2022-07-23T03:31:35;101638.63;;;17.91;100.00
4705;BME280;2366;51.332;6.610;2022-07-23T03:34:00;101637.91;;;17.89;100.00
4705;BME280;2366;51.332;6.610;2022-07-23T03:36:26;101637.50;;;17.82;100.00
4705;BME280;2366;51.332;6.610;2022-07-23T03:38:52;101636.66;;;17.82;100.00
4705;BME280;2366;51.332;6.610;2022-07-23T03:41:18;101640.28;;;17.81;100.00
4705;BME280;2366;51.332;6.610;2022-07-23T03:43:43;101637.72;;;17.79;100.00
4705;BME280;2366;51.332;6.610;2022-07-23T03:46:09;101637.09;;;17.76;100.00
4705;BME280;2366;51.332;6.610;2022-07-23T03:48:35;101639.19;;;17.72;100.00
4705;BME280;2366;51.332;6.610;2022-07-23T03:51:00;101642.31;;;17.66;100.00
4705;BME280;2366;51.332;6.610;2022-07-23T03:53:26;101640.50;;;17.66;100.00
4705;BME280;2366;51.332;6.610;2022-07-23T03:55:51;101644.16;;;17.65;100.00
4705;BME280;2366;51.332;6.610;2022-07-23T03:58:16;101650.25;;;17.68;100.00
4705;BME280;2366;51.332;6.610;2022-07-23T04:00:42;101644.66;;;17.71;100.00
4705;BME280;2366;51.332;6.610;2022-07-23T04:03:07;101649.16;;;17.70;100.00
4705;BME280;2366;51.332;6.610;2022-07-23T04:05:32;101650.25;;;17.68;100.00
4705;BME280;2366;51.332;6.610;2022-07-23T04:07:58;101655.00;;;17.64;100.00
4705;BME280;2366;51.332;6.610;2022-07-23T04:10:23;101655.25;;;17.61;100.00
4705;BME280;2366;51.332;6.610;2022-07-23T04:12:48;101652.69;;;17.71;100.00
4705;BME280;2366;51.332;6.610;2022-07-23T04:15:14;101662.22;;;17.75;100.00
4705;BME280;2366;51.332;6.610;2022-07-23T04:17:39;101658.97;;;17.82;100.00
4705;BME280;2366;51.332;6.610;2022-07-23T04:20:05;101663.47;;;17.82;100.00
4705;BME280;2366;51.332;6.610;2022-07-23T04:22:30;101665.56;;;17.90;100.00
4705;BME280;2366;51.332;6.610;2022-07-23T04:24:55;101668.16;;;18.02;100.00
4705;BME280;2366;51.332;6.610;2022-07-23T04:27:21;101667.44;;;18.00;100.00
4705;BME280;2366;51.332;6.610;2022-07-23T04:29:46;101671.84;;;18.35;100.00
4705;BME280;2366;51.332;6.610;2022-07-23T04:32:11;101665.47;;;18.47;100.00
4705;BME280;2366;51.332;6.610;2022-07-23T04:34:37;101660.22;;;18.68;100.00
4705;BME280;2366;51.332;6.610;2022-07-23T04:37:02;101661.22;;;18.67;99.75
4705;BME280;2366;51.332;6.610;2022-07-23T04:39:27;101672.69;;;18.92;100.00
4705;BME280;2366;51.332;6.610;2022-07-23T04:41:53;101679.78;;;19.37;100.00
4705;BME280;2366;51.332;6.610;2022-07-23T04:44:18;101683.41;;;19.36;99.51
4705;BME280;2366;51.332;6.610;2022-07-23T04:46:44;101683.31;;;19.69;100.00
4705;BME280;2366;51.332;6.610;2022-07-23T04:49:09;101689.00;;;19.97;100.00
4705;BME280;2366;51.332;6.610;2022-07-23T04:51:35;101688.28;;;20.16;100.00
4705;BME280;2366;51.332;6.610;2022-07-23T04:54:00;101692.81;;;20.46;99.47
4705;BME280;2366;51.332;6.610;2022-07-23T04:56:25;101691.28;;;20.53;94.18
4705;BME280;2366;51.332;6.610;2022-07-23T04:58:51;101694.72;;;20.86;98.93
4705;BME280;2366;51.332;6.610;2022-07-23T05:01:16;101693.19;;;21.23;95.35
4705;BME280;2366;51.332;6.610;2022-07-23T05:03:41;101704.34;;;21.59;95.75
4705;BME280;2366;51.332;6.610;2022-07-23T05:06:07;101708.00;;;21.87;93.43
4705;BME280;2366;51.332;6.610;2022-07-23T05:08:32;101710.84;;;21.95;94.07
4705;BME280;2366;51.332;6.610;2022-07-23T05:10:58;101708.09;;;22.14;91.86
4705;BME280;2366;51.332;6.610;2022-07-23T05:13:23;101708.50;;;22.20;89.89
4705;BME280;2366;51.332;6.610;2022-07-23T05:15:48;101714.28;;;22.44;89.74
4705;BME280;2366;51.332;6.610;2022-07-23T05:18:14;101708.97;;;22.62;91.54
4705;BME280;2366;51.332;6.610;2022-07-23T05:20:39;101703.22;;;22.38;86.23
4705;BME280;2366;51.332;6.610;2022-07-23T05:23:05;101715.81;;;22.56;89.09
4705;BME280;2366;51.332;6.610;2022-07-23T05:25:30;101706.19;;;22.82;88.61
4705;BME280;2366;51.332;6.610;2022-07-23T05:27:55;101717.50;;;23.23;93.06
4705;BME280;2366;51.332;6.610;2022-07-23T05:30:21;101717.72;;;23.29;90.66
4705;BME280;2366;51.332;6.610;2022-07-23T05:32:46;101712.50;;;23.18;85.26
4705;BME280;2366;51.332;6.610;2022-07-23T05:35:12;101713.94;;;23.58;79.15
4705;BME280;2366;51.332;6.610;2022-07-23T05:37:38;101714.44;;;23.97;77.75
4705;BME280;2366;51.332;6.610;2022-07-23T05:40:06;101711.31;;;24.63;72.95
4705;BME280;2366;51.332;6.610;2022-07-23T05:42:35;101712.84;;;25.16;68.08
4705;BME280;2366;51.332;6.610;2022-07-23T05:45:01;101717.59;;;25.14;63.16
4705;BME280;2366;51.332;6.610;2022-07-23T05:47:26;101727.19;;;25.83;57.50
4705;BME280;2366;51.332;6.610;2022-07-23T05:49:52;101730.66;;;26.50;54.75
4705;BME280;2366;51.332;6.610;2022-07-23T05:52:17;101731.69;;;27.04;53.21
4705;BME280;2366;51.332;6.610;2022-07-23T05:54:43;101737.66;;;27.31;52.34
4705;BME280;2366;51.332;6.610;2022-07-23T05:57:08;101735.38;;;27.66;51.59
4705;BME280;2366;51.332;6.610;2022-07-23T05:59:33;101730.91;;;27.96;48.28
4705;BME280;2366;51.332;6.610;2022-07-23T06:01:59;101735.81;;;27.55;49.45
4705;BME280;2366;51.332;6.610;2022-07-23T06:04:24;101737.78;;;28.07;48.75
4705;BME280;2366;51.332;6.610;2022-07-23T06:06:50;101733.13;;;28.60;46.59
4705;BME280;2366;51.332;6.610;2022-07-23T06:09:15;101735.31;;;29.01;44.52
4705;BME280;2366;51.332;6.610;2022-07-23T06:11:40;101740.44;;;29.41;44.82
4705;BME280;2366;51.332;6.610;2022-07-23T06:14:06;101741.88;;;29.37;44.48
4705;BME280;2366;51.332;6.610;2022-07-23T06:16:31;101742.59;;;29.45;43.22
4705;BME280;2366;51.332;6.610;2022-07-23T06:18:57;101741.09;;;29.86;43.25
4705;BME280;2366;51.332;6.610;2022-07-23T06:21:22;101750.94;;;29.80;43.23
4705;BME280;2366;51.332;6.610;2022-07-23T06:23:48;101744.31;;;29.96;42.23
4705;BME280;2366;51.332;6.610;2022-07-23T06:26:13;101745.38;;;30.23;41.41
4705;BME280;2366;51.332;6.610;2022-07-23T06:28:38;101745.31;;;29.67;42.33
4705;BME280;2366;51.332;6.610;2022-07-23T06:31:04;101741.94;;;29.86;42.08
4705;BME280;2366;51.332;6.610;2022-07-23T06:33:29;101738.06;;;30.02;42.34
4705;BME280;2366;51.332;6.610;2022-07-23T06:35:54;101747.94;;;30.03;42.17
4705;BME280;2366;51.332;6.610;2022-07-23T06:38:20;101747.91;;;29.97;41.49
4705;BME280;2366;51.332;6.610;2022-07-23T06:40:45;101743.16;;;30.75;40.78
4705;BME280;2366;51.332;6.610;2022-07-23T06:43:11;101742.91;;;31.05;40.38
4705;BME280;2366;51.332;6.610;2022-07-23T06:45:36;101739.63;;;31.36;39.78
4705;BME280;2366;51.332;6.610;2022-07-23T06:48:02;101741.34;;;31.44;39.51
4705;BME280;2366;51.332;6.610;2022-07-23T06:50:28;101749.81;;;31.56;38.92
4705;BME280;2366;51.332;6.610;2022-07-23T06:52:53;101752.38;;;31.90;38.20
4705;BME280;2366;51.332;6.610;2022-07-23T06:55:19;101754.03;;;32.18;37.46
4705;BME280;2366;51.332;6.610;2022-07-23T06:57:44;101750.75;;;32.74;37.22
4705;BME280;2366;51.332;6.610;2022-07-23T07:00:11;101753.00;;;32.98;35.72
4705;BME280;2366;51.332;6.610;2022-07-23T07:02:36;101748.31;;;33.05;36.46
4705;BME280;2366;51.332;6.610;2022-07-23T07:05:02;101747.31;;;32.99;35.64
4705;BME280;2366;51.332;6.610;2022-07-23T07:07:27;101740.34;;;32.31;35.37
4705;BME280;2366;51.332;6.610;2022-07-23T07:09:53;101741.56;;;32.36;36.38
4705;BME280;2366;51.332;6.610;2022-07-23T07:12:18;101737.78;;;33.08;36.05
4705;BME280;2366;51.332;6.610;2022-07-23T07:14:44;101743.06;;;33.42;35.00
4705;BME280;2366;51.332;6.610;2022-07-23T07:17:09;101743.00;;;33.55;34.71
4705;BME280;2366;51.332;6.610;2022-07-23T07:19:36;101749.25;;;33.69;34.10
4705;BME280;2366;51.332;6.610;2022-07-23T07:22:01;101747.72;;;33.98;33.94
4705;BME280;2366;51.332;6.610;2022-07-23T07:24:27;101750.38;;;33.86;33.11
4705;BME280;2366;51.332;6.610;2022-07-23T07:26:52;101750.56;;;33.28;33.86
4705;BME280;2366;51.332;6.610;2022-07-23T07:29:17;101745.75;;;33.48;34.52
4705;BME280;2366;51.332;6.610;2022-07-23T07:31:43;101748.25;;;33.18;34.97
4705;BME280;2366;51.332;6.610;2022-07-23T07:34:08;101747.72;;;33.41;32.84
4705;BME280;2366;51.332;6.610;2022-07-23T07:36:34;101749.16;;;32.53;33.95
4705;BME280;2366;51.332;6.610;2022-07-23T07:39:03;101744.94;;;33.09;32.96
4705;BME280;2366;51.332;6.610;2022-07-23T07:41:30;101755.25;;;33.52;32.72
4705;BME280;2366;51.332;6.610;2022-07-23T07:43:55;101756.25;;;33.26;32.28
4705;BME280;2366;51.332;6.610;2022-07-23T07:46:20;101753.34;;;33.21;33.24
4705;BME280;2366;51.332;6.610;2022-07-23T07:48:47;101758.91;;;33.08;33.14
4705;BME280;2366;51.332;6.610;2022-07-23T07:51:13;101757.72;;;33.29;31.79
4705;BME280;2366;51.332;6.610;2022-07-23T07:53:38;101755.34;;;32.94;31.91
4705;BME280;2366;51.332;6.610;2022-07-23T07:56:04;101750.44;;;33.09;32.63
4705;BME280;2366;51.332;6.610;2022-07-23T07:58:29;101759.22;;;33.56;31.70
4705;BME280;2366;51.332;6.610;2022-07-23T08:00:54;101766.22;;;33.52;31.38
4705;BME280;2366;51.332;6.610;2022-07-23T08:03:20;101761.97;;;32.80;32.63
4705;BME280;2366;51.332;6.610;2022-07-23T08:05:45;101759.41;;;33.30;32.03
4705;BME280;2366;51.332;6.610;2022-07-23T08:08:10;101757.56;;;33.55;32.08
4705;BME280;2366;51.332;6.610;2022-07-23T08:10:40;101758.50;;;33.74;31.99
4705;BME280;2366;51.332;6.610;2022-07-23T08:13:05;101762.59;;;33.59;31.98
4705;BME280;2366;51.332;6.610;2022-07-23T08:15:30;101768.31;;;32.73;31.82
4705;BME280;2366;51.332;6.610;2022-07-23T08:17:56;101771.72;;;32.62;32.86
4705;BME280;2366;51.332;6.610;2022-07-23T08:20:23;101766.16;;;33.66;31.93
4705;BME280;2366;51.332;6.610;2022-07-23T08:22:57;101776.66;;;34.51;29.28
4705;BME280;2366;51.332;6.610;2022-07-23T08:25:28;101774.69;;;34.14;30.47
4705;BME280;2366;51.332;6.610;2022-07-23T08:27:54;101781.75;;;33.40;30.95
4705;BME280;2366;51.332;6.610;2022-07-23T08:30:19;101779.31;;;33.57;31.84
4705;BME280;2366;51.332;6.610;2022-07-23T08:32:57;101779.59;;;33.04;30.48
4705;BME280;2366;51.332;6.610;2022-07-23T08:35:29;101778.38;;;33.38;30.72
4705;BME280;2366;51.332;6.610;2022-07-23T08:37:56;101773.09;;;33.37;30.69
4705;BME280;2366;51.332;6.610;2022-07-23T08:40:22;101775.63;;;32.93;31.55
4705;BME280;2366;51.332;6.610;2022-07-23T08:42:49;101775.81;;;32.98;31.74
4705;BME280;2366;51.332;6.610;2022-07-23T08:45:17;101776.25;;;32.95;30.44
4705;BME280;2366;51.332;6.610;2022-07-23T08:47:44;101777.59;;;32.72;30.07
4705;BME280;2366;51.332;6.610;2022-07-23T08:50:10;101778.06;;;32.63;30.52
4705;BME280;2366;51.332;6.610;2022-07-23T08:52:37;101776.59;;;32.53;32.01
4705;BME280;2366;51.332;6.610;2022-07-23T08:55:04;101778.50;;;33.05;31.59
4705;BME280;2366;51.332;6.610;2022-07-23T08:57:29;101779.41;;;33.44;30.52
4705;BME280;2366;51.332;6.610;2022-07-23T08:59:56;101786.06;;;33.61;31.77
4705;BME280;2366;51.332;6.610;2022-07-23T09:02:21;101784.25;;;33.80;30.53
4705;BME280;2366;51.332;6.610;2022-07-23T09:04:47;101788.66;;;33.04;30.14
4705;BME280;2366;51.332;6.610;2022-07-23T09:07:12;101777.84;;;33.23;30.93
4705;BME280;2366;51.332;6.610;2022-07-23T09:09:38;101785.13;;;32.97;31.64
4705;BME280;2366;51.332;6.610;2022-07-23T09:12:09;101780.13;;;32.74;30.76
4705;BME280;2366;51.332;6.610;2022-07-23T09:14:45;101780.59;;;32.64;29.65
4705;BME280;2366;51.332;6.610;2022-07-23T09:17:16;101788.38;;;33.26;29.93
4705;BME280;2366;51.332;6.610;2022-07-23T09:19:43;101778.47;;;33.18;29.34
4705;BME280;2366;51.332;6.610;2022-07-23T09:22:25;101777.56;;;32.86;30.60
4705;BME280;2366;51.332;6.610;2022-07-23T09:30:25;101774.69;;;32.54;32.20
4705;BME280;2366;51.332;6.610;2022-07-23T09:33:11;101774.88;;;32.59;32.09
4705;BME280;2366;51.332;6.610;2022-07-23T09:35:44;101780.19;;;32.34;31.37
4705;BME280;2366;51.332;6.610;2022-07-23T09:38:09;101782.09;;;32.20;31.49
4705;BME280;2366;51.332;6.610;2022-07-23T09:40:35;101791.19;;;32.14;31.31
4705;BME280;2366;51.332;6.610;2022-07-23T09:43:00;101778.09;;;32.16;31.50
4705;BME280;2366;51.332;6.610;2022-07-23T09:45:25;101774.31;;;32.17;31.14
4705;BME280;2366;51.332;6.610;2022-07-23T09:47:50;101770.88;;;32.55;30.91
4705;BME280;2366;51.332;6.610;2022-07-23T09:50:19;101774.47;;;32.36;30.84
4705;BME280;2366;51.332;6.610;2022-07-23T09:52:47;101775.34;;;32.16;30.07
4705;BME280;2366;51.332;6.610;2022-07-23T09:55:14;101781.66;;;31.02;32.16
4705;BME280;2366;51.332;6.610;2022-07-23T09:57:41;101786.56;;;31.20;31.76
4705;BME280;2366;51.332;6.610;2022-07-23T10:00:08;101782.56;;;31.22;30.88
4705;BME280;2366;51.332;6.610;2022-07-23T10:02:38;101782.25;;;31.45;32.13
4705;BME280;2366;51.332;6.610;2022-07-23T10:05:05;101780.44;;;31.24;31.62
4705;BME280;2366;51.332;6.610;2022-07-23T10:07:33;101781.47;;;31.10;32.46
4705;BME280;2366;51.332;6.610;2022-07-23T10:10:00;101773.66;;;31.07;31.23
4705;BME280;2366;51.332;6.610;2022-07-23T10:12:26;101777.56;;;31.39;32.29
4705;BME280;2366;51.332;6.610;2022-07-23T10:14:52;101781.56;;;31.37;31.59
4705;BME280;2366;51.332;6.610;2022-07-23T10:17:17;101773.41;;;31.70;30.94
4705;BME280;2366;51.332;6.610;2022-07-23T10:19:43;101769.00;;;31.56;30.06
4705;BME280;2366;51.332;6.610;2022-07-23T10:22:12;101765.81;;;31.45;31.42
4705;BME280;2366;51.332;6.610;2022-07-23T10:25:26;101762.44;;;31.43;32.82
4705;BME280;2366;51.332;6.610;2022-07-23T10:33:41;101761.56;;;30.53;34.66
4705;BME280;2366;51.332;6.610;2022-07-23T10:39:37;101756.63;;;29.64;32.78
4705;BME280;2366;51.332;6.610;2022-07-23T10:42:13;101747.66;;;29.48;33.76
4705;BME280;2366;51.332;6.610;2022-07-23T10:44:48;101755.22;;;29.89;34.38
4705;BME280;2366;51.332;6.610;2022-07-23T10:47:29;101758.22;;;30.01;32.34
4705;BME280;2366;51.332;6.610;2022-07-23T10:50:23;101759.09;;;29.59;33.55
4705;BME280;2366;51.332;6.610;2022-07-23T10:57:59;101744.81;;;29.05;33.47
4705;BME280;2366;51.332;6.610;2022-07-23T11:00:26;101750.22;;;28.84;33.61
4705;BME280;2366;51.332;6.610;2022-07-23T11:02:54;101749.66;;;28.44;35.14
4705;BME280;2366;51.332;6.610;2022-07-23T11:05:38;101752.28;;;28.82;34.87
4705;BME280;2366;51.332;6.610;2022-07-23T11:10:33;101757.03;;;29.82;35.12
4705;BME280;2366;51.332;6.610;2022-07-23T11:32:06;101759.00;;;28.64;34.39
4705;BME280;2366;51.332;6.610;2022-07-23T11:34:32;101763.22;;;28.82;34.32
4705;BME280;2366;51.332;6.610;2022-07-23T11:36:59;101762.50;;;28.58;34.79
4705;BME280;2366;51.332;6.610;2022-07-23T11:39:27;101751.84;;;28.49;34.49
4705;BME280;2366;51.332;6.610;2022-07-23T11:41:53;101756.81;;;28.60;35.72
4705;BME280;2366;51.332;6.610;2022-07-23T11:44:29;101762.25;;;29.04;35.77
4705;BME280;2366;51.332;6.610;2022-07-23T11:47:00;101758.19;;;29.30;34.81
4705;BME280;2366;51.332;6.610;2022-07-23T11:49:25;101752.34;;;29.03;34.71
4705;BME280;2366;51.332;6.610;2022-07-23T11:52:11;101754.19;;;28.66;34.93
4705;BME280;2366;51.332;6.610;2022-07-23T11:54:56;101750.63;;;28.51;35.34
4705;BME280;2366;51.332;6.610;2022-07-23T11:57:40;101755.72;;;28.54;34.35
4705;BME280;2366;51.332;6.610;2022-07-23T12:00:18;101757.44;;;28.32;34.44
4705;BME280;2366;51.332;6.610;2022-07-23T12:02:48;101757.72;;;28.22;36.33
4705;BME280;2366;51.332;6.610;2022-07-23T12:05:15;101757.50;;;28.77;35.75
4705;BME280;2366;51.332;6.610;2022-07-23T12:07:43;101747.50;;;28.69;35.24
4705;BME280;2366;51.332;6.610;2022-07-23T12:10:17;101748.25;;;28.78;34.71
4705;BME280;2366;51.332;6.610;2022-07-23T12:12:51;101745.09;;;28.59;35.81
4705;BME280;2366;51.332;6.610;2022-07-23T12:15:22;101739.00;;;29.08;37.17
4705;BME280;2366;51.332;6.610;2022-07-23T12:17:50;101741.72;;;29.45;35.89
4705;BME280;2366;51.332;6.610;2022-07-23T12:20:20;101744.44;;;29.45;35.66
4705;BME280;2366;51.332;6.610;2022-07-23T12:22:48;101739.69;;;29.54;35.40
4705;BME280;2366;51.332;6.610;2022-07-23T12:25:17;101741.34;;;29.48;35.06
4705;BME280;2366;51.332;6.610;2022-07-23T12:27:43;101741.00;;;29.58;34.46
4705;BME280;2366;51.332;6.610;2022-07-23T12:30:19;101740.94;;;29.51;35.11
4705;BME280;2366;51.332;6.610;2022-07-23T12:32:47;101743.44;;;29.46;35.71
4705;BME280;2366;51.332;6.610;2022-07-23T12:35:13;101751.59;;;29.24;34.46
4705;BME280;2366;51.332;6.610;2022-07-23T12:37:42;101745.75;;;28.61;36.09
4705;BME280;2366;51.332;6.610;2022-07-23T12:40:24;101734.16;;;28.59;36.09
4705;BME280;2366;51.332;6.610;2022-07-23T12:45:19;101750.34;;;28.61;35.81
4705;BME280;2366;51.332;6.610;2022-07-23T12:48:24;101746.41;;;28.63;35.74
4705;BME280;2366;51.332;6.610;2022-07-23T12:50:55;101748.94;;;28.50;35.90
4705;BME280;2366;51.332;6.610;2022-07-23T12:53:30;101745.84;;;28.53;36.58
4705;BME280;2366;51.332;6.610;2022-07-23T12:56:08;101756.03;;;28.36;36.17
4705;BME280;2366;51.332;6.610;2022-07-23T13:01:22;101761.44;;;27.83;36.72
4705;BME280;2366;51.332;6.610;2022-07-23T13:06:35;101755.91;;;28.15;36.66
4705;BME280;2366;51.332;6.610;2022-07-23T13:09:03;101756.91;;;28.37;36.39
4705;BME280;2366;51.332;6.610;2022-07-23T13:11:29;101756.66;;;28.61;37.51
4705;BME280;2366;51.332;6.610;2022-07-23T13:13:54;101760.47;;;28.82;34.46
4705;BME280;2366;51.332;6.610;2022-07-23T13:16:20;101768.03;;;28.50;34.84
4705;BME280;2366;51.332;6.610;2022-07-23T13:18:46;101759.25;;;28.40;34.67
4705;BME280;2366;51.332;6.610;2022-07-23T13:21:11;101758.50;;;28.46;35.06
4705;BME280;2366;51.332;6.610;2022-07-23T13:23:37;101751.59;;;28.58;34.09
4705;BME280;2366;51.332;6.610;2022-07-23T13:26:03;101749.97;;;28.64;34.46
4705;BME280;2366;51.332;6.610;2022-07-23T13:28:28;101749.88;;;28.57;34.97
4705;BME280;2366;51.332;6.610;2022-07-23T13:30:54;101749.69;;;28.74;34.15
4705;BME280;2366;51.332;6.610;2022-07-23T13:33:21;101749.97;;;28.49;34.67
4705;BME280;2366;51.332;6.610;2022-07-23T13:35:48;101746.50;;;28.55;34.15
4705;BME280;2366;51.332;6.610;2022-07-23T13:38:14;101741.13;;;28.62;34.51
4705;BME280;2366;51.332;6.610;2022-07-23T13:40:42;101736.31;;;28.94;34.79
4705;BME280;2366;51.332;6.610;2022-07-23T13:43:09;101733.72;;;29.07;34.44
4705;BME280;2366;51.332;6.610;2022-07-23T13:45:35;101733.41;;;28.65;34.02
4705;BME280;2366;51.332;6.610;2022-07-23T13:48:01;101741.28;;;28.90;35.57
4705;BME280;2366;51.332;6.610;2022-07-23T13:50:28;101737.75;;;29.26;36.22
4705;BME280;2366;51.332;6.610;2022-07-23T13:52:54;101726.13;;;29.39;35.39
4705;BME280;2366;51.332;6.610;2022-07-23T13:55:19;101729.19;;;29.51;34.88
4705;BME280;2366;51.332;6.610;2022-07-23T13:57:45;101733.34;;;29.46;33.65